Time;durP1;ratioP1;P1;durP2;ratioP2;P2;SDS_P1;SDS_P2;PMS_P1;PMS_P2;Temp;Humidity;BMP_temperature;BMP_pressure;BME280_temperature;BME280_humidity;BME280_pressure;Samples;Min_cycle;Max_cycle;Signal;HPM_P1;HPM_P2
2023/04/30 00:00:39;;;;;;;40.30;23.60;;;7.10;99.90;;;;;;5060320;28;20507;-76
2023/04/30 00:03:05;;;;;;;41.03;24.15;;;7.00;99.90;;;;;;5066480;28;20383;-76
2023/04/30 00:05:30;;;;;;;43.58;26.70;;;7.10;99.90;;;;;;5061818;28;20483;-75
2023/04/30 00:07:56;;;;;;;42.85;26.77;;;7.10;99.90;;;;;;5059018;28;20059;-76
2023/04/30 00:10:22;;;;;;;44.10;26.20;;;7.00;99.90;;;;;;5065481;28;20516;-76
2023/04/30 00:12:47;;;;;;;47.70;26.88;;;7.00;99.90;;;;;;5071378;28;20044;-76
2023/04/30 00:15:13;;;;;;;49.17;27.15;;;7.00;99.90;;;;;;5062507;28;20490;-76
2023/04/30 00:17:38;;;;;;;43.65;25.83;;;7.00;99.90;;;;;;5059772;28;20032;-76
2023/04/30 00:20:05;;;;;;;43.30;26.73;;;7.00;99.90;;;;;;5055055;28;20078;-76
2023/04/30 00:22:32;;;;;;;50.35;28.38;;;7.00;99.90;;;;;;5058611;28;20105;-76
2023/04/30 00:24:57;;;;;;;47.92;27.65;;;7.00;99.90;;;;;;5077940;28;20073;-76
2023/04/30 00:27:23;;;;;;;45.83;26.52;;;7.00;99.90;;;;;;5077354;28;20100;-76
2023/04/30 00:29:49;;;;;;;46.50;27.30;;;6.90;99.90;;;;;;5052683;28;20055;-76
2023/04/30 00:32:15;;;;;;;50.22;28.05;;;7.00;99.90;;;;;;5062023;28;20440;-76
2023/04/30 00:34:40;;;;;;;48.25;28.52;;;7.00;99.90;;;;;;5060324;28;20117;-76
2023/04/30 00:37:06;;;;;;;52.85;28.95;;;7.00;99.90;;;;;;5059530;28;20073;-76
2023/04/30 00:39:31;;;;;;;54.03;28.98;;;7.00;99.90;;;;;;5077293;28;20496;-76
2023/04/30 00:41:57;;;;;;;48.65;27.40;;;7.00;99.90;;;;;;5074474;28;20028;-76
2023/04/30 00:44:23;;;;;;;45.03;27.33;;;7.00;99.90;;;;;;5077520;28;20035;-76
2023/04/30 00:46:48;;;;;;;50.65;26.77;;;7.00;99.90;;;;;;5076949;28;20028;-76
2023/04/30 00:49:14;;;;;;;42.45;25.08;;;7.00;99.90;;;;;;5075247;28;20085;-76
2023/04/30 00:51:40;;;;;;;42.05;24.95;;;7.00;99.90;;;;;;5076813;28;20251;-76
2023/04/30 00:54:07;;;;;;;42.75;25.13;;;7.00;99.90;;;;;;5075113;28;20028;-77
2023/04/30 00:56:33;;;;;;;44.10;25.10;;;6.90;99.90;;;;;;5058248;28;20028;-76
2023/04/30 00:58:58;;;;;;;43.17;25.75;;;6.90;99.90;;;;;;5058892;28;20449;-76
2023/04/30 01:01:27;;;;;;;44.72;25.73;;;6.80;99.90;;;;;;5072120;28;20119;-76
2023/04/30 01:03:52;;;;;;;42.55;24.60;;;6.90;99.90;;;;;;5057941;28;20043;-76
2023/04/30 01:06:18;;;;;;;42.90;25.13;;;6.80;99.90;;;;;;5072533;28;20024;-76
2023/04/30 01:08:44;;;;;;;45.28;26.70;;;6.80;99.90;;;;;;5074309;28;20089;-76
2023/04/30 01:11:23;;;;;;;50.97;26.55;;;6.80;99.90;;;;;;5054759;28;20085;-77
2023/04/30 01:13:57;;;;;;;44.90;26.45;;;6.70;99.90;;;;;;5074176;28;20047;-77
2023/04/30 01:16:29;;;;;;;47.45;25.45;;;6.70;99.90;;;;;;5078530;28;20055;-76
2023/04/30 01:19:07;;;;;;;43.17;24.95;;;6.70;99.90;;;;;;5076490;28;20056;-76
2023/04/30 01:21:35;;;;;;;42.00;24.35;;;6.70;99.90;;;;;;5076937;28;20032;-77
2023/04/30 01:24:06;;;;;;;39.55;24.00;;;6.70;99.90;;;;;;5073704;28;20082;-76
2023/04/30 01:26:39;;;;;;;44.85;24.00;;;6.60;99.90;;;;;;5081372;28;20032;-76
2023/04/30 01:29:05;;;;;;;43.55;25.00;;;6.60;99.90;;;;;;5074627;28;20451;-76
2023/04/30 01:31:30;;;;;;;42.88;24.40;;;6.60;99.90;;;;;;5061604;28;20126;-76
2023/04/30 01:33:56;;;;;;;47.28;24.35;;;6.60;99.90;;;;;;5077284;28;20036;-77
2023/04/30 01:36:41;;;;;;;39.00;24.00;;;6.60;99.90;;;;;;5076199;28;20078;-77
2023/04/30 01:39:13;;;;;;;50.13;24.23;;;6.60;99.90;;;;;;5057832;28;20027;-77
2023/04/30 01:41:59;;;;;;;37.47;23.33;;;6.50;99.90;;;;;;5060211;28;20147;-76
2023/04/30 01:44:56;;;;;;;46.72;23.17;;;6.50;99.90;;;;;;5055748;28;20336;-75
2023/04/30 01:47:59;;;;;;;35.17;21.02;;;6.50;99.90;;;;;;5058025;28;20071;-76
2023/04/30 01:50:33;;;;;;;43.88;22.55;;;6.50;99.90;;;;;;5060155;28;20118;-77
2023/04/30 01:53:01;;;;;;;38.05;22.33;;;6.40;99.90;;;;;;5074189;28;20047;-77
2023/04/30 01:55:35;;;;;;;38.47;21.77;;;6.40;99.90;;;;;;5073860;28;20064;-76
2023/04/30 01:58:05;;;;;;;37.00;21.50;;;6.30;99.90;;;;;;5077060;28;20067;-76
2023/04/30 02:00:31;;;;;;;36.05;21.10;;;6.40;99.90;;;;;;5050670;28;20047;-76
2023/04/30 02:02:57;;;;;;;39.47;22.38;;;6.30;99.90;;;;;;5055767;28;20028;-76
2023/04/30 02:05:23;;;;;;;45.33;24.00;;;6.20;99.90;;;;;;5079821;28;20741;-76
2023/04/30 02:07:50;;;;;;;43.70;24.63;;;6.30;99.90;;;;;;5080607;28;20488;-76
2023/04/30 02:10:20;;;;;;;46.33;26.25;;;6.30;99.90;;;;;;5073296;28;20085;-77
2023/04/30 02:12:46;;;;;;;45.33;25.52;;;6.30;99.90;;;;;;5056385;28;20188;-76
2023/04/30 02:15:12;;;;;;;46.28;25.27;;;6.30;99.90;;;;;;5056587;28;20059;-76
2023/04/30 02:17:38;;;;;;;44.28;25.95;;;6.40;99.90;;;;;;5077653;28;20408;-76
2023/04/30 02:20:04;;;;;;;41.05;22.67;;;6.40;99.90;;;;;;5076911;28;20205;-76
2023/04/30 02:22:30;;;;;;;37.35;22.20;;;6.30;99.90;;;;;;5079126;28;20118;-76
2023/04/30 02:24:56;;;;;;;42.72;22.77;;;6.30;99.90;;;;;;5073595;28;20099;-77
2023/04/30 02:27:23;;;;;;;37.58;21.10;;;6.30;99.90;;;;;;5075386;28;20063;-77
2023/04/30 02:29:49;;;;;;;33.22;20.40;;;6.20;99.90;;;;;;5059742;28;20031;-76
2023/04/30 02:32:15;;;;;;;31.35;17.67;;;6.10;99.90;;;;;;5076791;28;20089;-75
2023/04/30 02:34:40;;;;;;;29.60;17.98;;;6.00;99.90;;;;;;5075671;28;20031;-76
2023/04/30 02:37:07;;;;;;;28.45;17.95;;;6.00;99.90;;;;;;5073566;28;20032;-76
2023/04/30 02:39:32;;;;;;;28.45;17.08;;;5.90;99.90;;;;;;5060851;28;20031;-76
2023/04/30 02:41:58;;;;;;;30.27;18.25;;;5.80;99.90;;;;;;5080473;28;20277;-76
2023/04/30 02:44:25;;;;;;;27.92;17.08;;;5.70;99.90;;;;;;5051931;28;20435;-76
2023/04/30 02:46:50;;;;;;;31.10;18.88;;;5.70;99.90;;;;;;5078111;28;20506;-77
2023/04/30 02:49:16;;;;;;;28.90;17.95;;;5.60;99.90;;;;;;5080005;28;20028;-76
2023/04/30 02:51:42;;;;;;;29.73;18.08;;;5.60;99.90;;;;;;5060360;28;20132;-77
2023/04/30 02:54:08;;;;;;;30.73;18.08;;;5.60;99.90;;;;;;5081026;28;20035;-76
2023/04/30 02:56:34;;;;;;;33.13;18.95;;;5.60;99.90;;;;;;5078576;28;20024;-76
2023/04/30 02:58:59;;;;;;;33.45;18.17;;;5.50;99.90;;;;;;5076333;28;20055;-75
2023/04/30 03:01:25;;;;;;;32.47;19.05;;;5.50;99.90;;;;;;5076670;28;20387;-76
2023/04/30 03:03:51;;;;;;;32.30;18.83;;;5.50;99.90;;;;;;5078914;28;20138;-77
2023/04/30 03:06:17;;;;;;;33.47;18.73;;;5.50;99.90;;;;;;5073457;28;20055;-75
2023/04/30 03:08:42;;;;;;;32.72;18.55;;;5.40;99.90;;;;;;5079741;28;20036;-76
2023/04/30 03:11:08;;;;;;;28.77;17.60;;;5.40;99.90;;;;;;5073939;28;20032;-77
2023/04/30 03:13:33;;;;;;;29.98;17.95;;;5.40;99.90;;;;;;5060227;28;20431;-77
2023/04/30 03:16:00;;;;;;;31.98;18.42;;;5.40;99.90;;;;;;5063452;28;20031;-76
2023/04/30 03:18:27;;;;;;;27.67;17.92;;;5.30;99.90;;;;;;5060720;28;20061;-76
2023/04/30 03:20:52;;;;;;;29.10;18.05;;;5.30;99.90;;;;;;5076242;28;20122;-77
2023/04/30 03:23:18;;;;;;;30.13;17.08;;;5.30;99.90;;;;;;5077750;28;20486;-76
2023/04/30 03:25:44;;;;;;;29.58;16.17;;;5.30;99.90;;;;;;5056463;28;20160;-76
2023/04/30 03:28:09;;;;;;;26.92;16.27;;;5.30;99.90;;;;;;5055635;28;20526;-75
2023/04/30 03:30:35;;;;;;;27.92;16.48;;;5.20;99.90;;;;;;5076932;28;20035;-76
2023/04/30 03:33:00;;;;;;;27.45;16.75;;;5.20;99.90;;;;;;5076043;28;20534;-77
2023/04/30 03:35:26;;;;;;;29.38;17.48;;;5.20;99.90;;;;;;5076551;28;20040;-76
2023/04/30 03:37:52;;;;;;;29.02;16.85;;;5.20;99.90;;;;;;5056995;28;20422;-76
2023/04/30 03:40:17;;;;;;;29.70;17.17;;;5.20;99.90;;;;;;5073552;28;20093;-76
2023/04/30 03:42:43;;;;;;;28.90;17.35;;;5.20;99.90;;;;;;5075611;28;20380;-77
2023/04/30 03:45:09;;;;;;;29.27;17.20;;;5.20;99.90;;;;;;5073625;28;20031;-76
2023/04/30 03:47:35;;;;;;;28.92;16.95;;;5.20;99.90;;;;;;5058535;28;20040;-76
2023/04/30 03:50:02;;;;;;;25.67;15.90;;;5.20;99.90;;;;;;5073116;28;20099;-76
2023/04/30 03:52:28;;;;;;;27.55;16.75;;;5.20;99.90;;;;;;5073877;28;20067;-76
2023/04/30 03:54:54;;;;;;;30.27;16.77;;;5.10;99.90;;;;;;5074723;28;20107;-77
2023/04/30 03:57:20;;;;;;;21.35;14.23;;;5.10;99.90;;;;;;5060609;28;20027;-77
2023/04/30 03:59:46;;;;;;;23.13;15.38;;;5.00;99.90;;;;;;5075221;28;20028;-76
2023/04/30 04:02:11;;;;;;;24.85;15.55;;;4.80;99.90;;;;;;5074507;28;20371;-76
2023/04/30 04:04:37;;;;;;;22.20;14.80;;;4.70;99.90;;;;;;5060288;28;20532;-78
2023/04/30 04:07:02;;;;;;;20.60;14.23;;;4.60;99.90;;;;;;5058259;28;20032;-75
2023/04/30 04:09:28;;;;;;;21.17;14.65;;;4.50;99.90;;;;;;5075773;28;20130;-77
2023/04/30 04:11:54;;;;;;;23.20;15.23;;;4.50;99.90;;;;;;5074232;28;20032;-76
2023/04/30 04:14:20;;;;;;;25.73;15.05;;;4.50;99.90;;;;;;5074050;28;20040;-77
2023/04/30 04:16:45;;;;;;;24.30;15.88;;;4.50;99.90;;;;;;5065516;28;20107;-76
2023/04/30 04:19:14;;;;;;;24.17;15.52;;;4.60;99.90;;;;;;5056886;28;20089;-77
2023/04/30 04:21:40;;;;;;;24.45;15.07;;;4.60;99.90;;;;;;5057764;28;20024;-75
2023/04/30 04:24:07;;;;;;;24.50;15.68;;;4.60;99.90;;;;;;5075600;28;20084;-77
2023/04/30 04:26:36;;;;;;;23.90;14.52;;;4.60;99.90;;;;;;5073801;28;20036;-77
2023/04/30 04:29:03;;;;;;;23.75;14.55;;;4.60;99.90;;;;;;5079628;28;20055;-77
2023/04/30 04:31:30;;;;;;;22.27;14.40;;;4.60;99.90;;;;;;5056580;28;20040;-76
2023/04/30 04:33:59;;;;;;;26.30;15.77;;;4.60;99.90;;;;;;5075012;28;21327;-77
2023/04/30 04:36:27;;;;;;;23.80;15.88;;;4.50;99.90;;;;;;5073521;28;20027;-77
2023/04/30 04:38:54;;;;;;;25.83;16.08;;;4.40;99.90;;;;;;5073645;28;20028;-76
2023/04/30 04:41:20;;;;;;;27.52;15.05;;;4.40;99.90;;;;;;5059895;28;20402;-77
2023/04/30 04:43:46;;;;;;;24.38;15.05;;;4.40;99.90;;;;;;5059922;28;20491;-76
2023/04/30 04:46:13;;;;;;;26.58;15.60;;;4.40;99.90;;;;;;5054696;28;20027;-77
2023/04/30 04:48:39;;;;;;;26.58;15.13;;;4.40;99.90;;;;;;5081040;28;20878;-77
2023/04/30 04:51:04;;;;;;;23.40;15.35;;;4.50;99.90;;;;;;5078623;28;20055;-76
2023/04/30 04:53:30;;;;;;;27.10;16.38;;;4.50;99.90;;;;;;5076990;28;20044;-77
2023/04/30 04:55:56;;;;;;;29.23;17.80;;;4.50;99.90;;;;;;5059478;28;20025;-77
2023/04/30 04:58:21;;;;;;;29.08;16.52;;;4.50;99.90;;;;;;5058602;28;20062;-76
2023/04/30 05:00:47;;;;;;;29.60;16.42;;;4.60;99.90;;;;;;5072868;28;20043;-77
2023/04/30 05:03:13;;;;;;;27.77;16.80;;;4.70;99.90;;;;;;5077510;28;20057;-77
2023/04/30 05:05:38;;;;;;;26.95;16.55;;;4.70;99.90;;;;;;5082132;28;20578;-78
2023/04/30 05:08:04;;;;;;;26.73;16.92;;;4.80;99.90;;;;;;5057215;28;20039;-76
2023/04/30 05:10:29;;;;;;;27.70;17.35;;;4.90;99.90;;;;;;5083714;28;20028;-77
2023/04/30 05:12:55;;;;;;;28.10;17.35;;;5.00;99.90;;;;;;5064353;28;20032;-77
2023/04/30 05:15:21;;;;;;;28.48;17.50;;;5.10;99.90;;;;;;5065122;28;20471;-77
2023/04/30 05:17:46;;;;;;;34.40;18.35;;;5.20;99.90;;;;;;5065229;28;20065;-76
2023/04/30 05:20:12;;;;;;;26.50;15.90;;;5.30;99.90;;;;;;5065612;28;20443;-77
2023/04/30 05:22:38;;;;;;;26.73;16.15;;;5.40;99.90;;;;;;5064684;28;20028;-77
2023/04/30 05:25:04;;;;;;;26.65;16.17;;;5.50;99.90;;;;;;5081723;28;20036;-77
2023/04/30 05:27:30;;;;;;;26.42;15.90;;;5.70;99.90;;;;;;5062768;28;20036;-77
2023/04/30 05:29:56;;;;;;;26.13;16.38;;;5.80;99.90;;;;;;5065647;28;20501;-77
2023/04/30 05:32:22;;;;;;;26.90;16.40;;;5.90;99.90;;;;;;5068297;28;20466;-78
2023/04/30 05:34:47;;;;;;;28.45;17.63;;;6.00;99.90;;;;;;5067088;28;20024;-77
2023/04/30 05:37:13;;;;;;;30.08;17.23;;;6.20;99.90;;;;;;5083134;28;20020;-77
2023/04/30 05:39:39;;;;;;;26.70;16.10;;;6.30;99.90;;;;;;5060812;28;20047;-77
2023/04/30 05:42:04;;;;;;;24.05;15.02;;;6.40;99.90;;;;;;5082790;28;20395;-77
2023/04/30 05:44:30;;;;;;;23.80;15.38;;;6.40;99.90;;;;;;5064927;28;20089;-76
2023/04/30 05:46:56;;;;;;;20.40;15.13;;;6.50;99.90;;;;;;5081478;28;20110;-77
2023/04/30 05:49:21;;;;;;;22.88;16.33;;;6.60;99.90;;;;;;5083477;28;20028;-77
2023/04/30 05:51:47;;;;;;;20.80;15.43;;;6.80;99.90;;;;;;5082243;28;20039;-77
2023/04/30 05:54:12;;;;;;;20.65;14.77;;;6.90;99.90;;;;;;5086650;28;20416;-77
2023/04/30 05:56:38;;;;;;;21.90;15.48;;;7.10;99.90;;;;;;5065735;28;20081;-77
2023/04/30 05:59:04;;;;;;;22.23;15.55;;;7.30;99.90;;;;;;5084713;28;20459;-76
2023/04/30 06:01:29;;;;;;;21.38;15.38;;;7.40;99.90;;;;;;5081989;28;21421;-77
2023/04/30 06:03:55;;;;;;;20.23;14.30;;;7.60;99.90;;;;;;5080988;28;20530;-77
2023/04/30 06:06:21;;;;;;;19.80;14.48;;;7.80;99.90;;;;;;5063307;28;20464;-77
2023/04/30 06:08:46;;;;;;;20.52;14.35;;;8.10;99.90;;;;;;5076778;28;20067;-77
2023/04/30 06:11:12;;;;;;;21.58;14.73;;;8.40;99.90;;;;;;5086896;28;20388;-77
2023/04/30 06:13:38;;;;;;;20.15;14.57;;;8.60;99.90;;;;;;5073174;28;20071;-77
2023/04/30 06:16:05;;;;;;;20.27;14.68;;;9.20;99.90;;;;;;5055583;28;20023;-77
2023/04/30 06:18:31;;;;;;;19.77;13.88;;;10.10;99.90;;;;;;5078065;28;20036;-78
2023/04/30 06:20:56;;;;;;;17.30;12.98;;;10.60;99.90;;;;;;5061769;28;20098;-77
2023/04/30 06:23:22;;;;;;;16.35;12.68;;;11.20;99.90;;;;;;5083578;28;20050;-77
2023/04/30 06:25:47;;;;;;;16.23;12.55;;;11.40;99.90;;;;;;5059783;28;20124;-77
2023/04/30 06:28:13;;;;;;;20.48;14.15;;;11.50;99.90;;;;;;5057637;28;20024;-76
2023/04/30 06:30:40;;;;;;;21.55;14.90;;;11.50;99.90;;;;;;5055548;28;20062;-78
2023/04/30 06:33:05;;;;;;;20.85;14.98;;;11.60;99.90;;;;;;5078878;28;20134;-78
2023/04/30 06:35:31;;;;;;;23.58;15.18;;;11.60;99.90;;;;;;5057719;28;20070;-78
2023/04/30 06:37:57;;;;;;;22.17;15.23;;;11.80;99.90;;;;;;5055097;28;20046;-77
2023/04/30 06:40:22;;;;;;;20.48;14.40;;;12.30;99.90;;;;;;5057580;28;20024;-77
2023/04/30 06:42:48;;;;;;;21.38;15.00;;;13.00;99.90;;;;;;5057317;28;20176;-77
2023/04/30 06:45:16;;;;;;;19.98;13.88;;;13.20;99.90;;;;;;5058004;28;20039;-77
2023/04/30 06:47:44;;;;;;;23.52;14.40;;;13.50;99.90;;;;;;5063091;28;20093;-76
2023/04/30 06:50:10;;;;;;;24.80;15.90;;;13.70;99.90;;;;;;5061525;28;20035;-77
2023/04/30 06:52:35;;;;;;;25.80;16.02;;;13.50;99.90;;;;;;5083634;28;20039;-78
2023/04/30 06:55:01;;;;;;;21.17;15.60;;;13.40;99.90;;;;;;5061472;28;20518;-77
2023/04/30 06:57:27;;;;;;;28.15;16.10;;;13.50;99.90;;;;;;5080653;28;20075;-78
2023/04/30 06:59:53;;;;;;;25.55;17.05;;;13.60;99.90;;;;;;5061223;28;20027;-77
2023/04/30 07:02:18;;;;;;;21.67;15.60;;;13.80;99.90;;;;;;5060215;28;20031;-77
2023/04/30 07:04:44;;;;;;;22.70;15.93;;;14.30;99.90;;;;;;5072920;28;20047;-77
2023/04/30 07:07:10;;;;;;;25.67;16.17;;;14.80;98.60;;;;;;5073282;28;20063;-77
2023/04/30 07:09:36;;;;;;;25.08;16.83;;;15.00;98.30;;;;;;5052052;28;20471;-77
2023/04/30 07:12:03;;;;;;;26.17;17.05;;;15.00;97.00;;;;;;5069496;28;20040;-77
2023/04/30 07:14:28;;;;;;;28.52;17.15;;;14.80;98.30;;;;;;5053032;28;20442;-77
2023/04/30 07:16:54;;;;;;;23.70;17.73;;;15.10;97.20;;;;;;5068483;28;20052;-77
2023/04/30 07:19:19;;;;;;;26.58;18.05;;;15.20;96.30;;;;;;5059523;28;20470;-77
2023/04/30 07:21:45;;;;;;;24.73;16.50;;;15.40;96.60;;;;;;5062915;28;20054;-77
2023/04/30 07:24:11;;;;;;;24.67;17.95;;;15.50;96.30;;;;;;5063840;28;20482;-76
2023/04/30 07:26:36;;;;;;;25.33;16.52;;;15.70;95.80;;;;;;5078405;28;20112;-77
2023/04/30 07:29:03;;;;;;;25.40;18.20;;;15.80;94.00;;;;;;5066316;28;20036;-76
2023/04/30 07:31:29;;;;;;;25.33;16.35;;;16.00;93.80;;;;;;5072210;28;20489;-76
2023/04/30 07:33:55;;;;;;;25.42;17.58;;;16.20;94.10;;;;;;5082360;28;20060;-77
2023/04/30 07:36:21;;;;;;;26.00;18.08;;;16.30;93.60;;;;;;5065757;28;20024;-75
2023/04/30 07:38:47;;;;;;;23.55;17.30;;;16.40;92.60;;;;;;5079776;28;20027;-76
2023/04/30 07:41:12;;;;;;;23.55;16.27;;;16.70;92.60;;;;;;5062409;28;20077;-76
2023/04/30 07:43:38;;;;;;;26.08;17.05;;;17.20;90.70;;;;;;5061801;28;20043;-76
2023/04/30 07:46:04;;;;;;;22.15;14.95;;;18.30;83.20;;;;;;5079506;28;20059;-76
2023/04/30 07:48:29;;;;;;;20.40;15.77;;;20.10;68.00;;;;;;5078917;28;20127;-76
2023/04/30 07:50:56;;;;;;;20.42;14.35;;;22.00;51.80;;;;;;5060807;28;20035;-77
2023/04/30 07:53:25;;;;;;;23.02;15.10;;;24.10;47.20;;;;;;5081812;28;20039;-76
2023/04/30 07:55:50;;;;;;;19.42;13.75;;;25.40;42.10;;;;;;5061526;28;20032;-76
2023/04/30 07:58:16;;;;;;;18.88;14.15;;;26.60;41.80;;;;;;5060079;28;20034;-76
2023/04/30 08:00:41;;;;;;;19.25;14.60;;;28.20;38.60;;;;;;5062754;28;20103;-75
2023/04/30 08:03:07;;;;;;;25.23;15.27;;;29.10;35.40;;;;;;5078922;28;20077;-76
2023/04/30 08:05:33;;;;;;;20.10;14.20;;;29.70;34.80;;;;;;5078349;28;20024;-77
2023/04/30 08:07:58;;;;;;;20.88;15.23;;;30.00;35.80;;;;;;5077166;28;20092;-76
2023/04/30 08:10:25;;;;;;;20.98;15.27;;;29.40;35.80;;;;;;5081314;28;20028;-76
2023/04/30 08:12:51;;;;;;;21.20;14.48;;;29.20;34.80;;;;;;5061793;28;20044;-76
2023/04/30 08:15:20;;;;;;;19.55;14.80;;;29.80;36.40;;;;;;5076762;28;20035;-76
2023/04/30 08:17:50;;;;;;;21.40;15.10;;;30.30;33.90;;;;;;5081046;28;20605;-76
2023/04/30 08:20:16;;;;;;;19.90;14.05;;;30.70;33.20;;;;;;5081474;28;20112;-77
2023/04/30 08:22:42;;;;;;;17.88;13.90;;;31.40;33.50;;;;;;5077026;28;20123;-76
2023/04/30 08:25:11;;;;;;;19.98;15.27;;;32.00;31.90;;;;;;5080858;28;20019;-76
2023/04/30 08:27:37;;;;;;;21.08;15.00;;;32.60;31.00;;;;;;5063098;28;20046;-76
2023/04/30 08:30:03;;;;;;;20.48;15.32;;;32.50;30.00;;;;;;5069256;28;20032;-75
2023/04/30 08:32:29;;;;;;;20.30;15.60;;;31.90;32.30;;;;;;5074802;28;20115;-76
2023/04/30 08:34:55;;;;;;;20.75;17.13;;;31.40;31.70;;;;;;5055501;28;20024;-76
2023/04/30 08:37:20;;;;;;;22.05;17.10;;;31.00;31.10;;;;;;5054779;28;20077;-76
2023/04/30 08:39:46;;;;;;;22.55;17.92;;;29.90;31.90;;;;;;5077906;28;20055;-76
2023/04/30 08:42:14;;;;;;;22.45;16.50;;;29.30;33.60;;;;;;5057728;28;20024;-76
2023/04/30 08:44:42;;;;;;;21.02;15.25;;;28.70;34.00;;;;;;5059755;28;20467;-76
2023/04/30 08:47:12;;;;;;;21.60;15.60;;;29.30;37.40;;;;;;5076892;28;20024;-76
2023/04/30 08:49:38;;;;;;;25.08;17.10;;;29.90;34.10;;;;;;5054234;28;20028;-76
2023/04/30 08:52:04;;;;;;;21.70;16.08;;;30.30;32.70;;;;;;5044620;28;20121;-77
2023/04/30 08:54:33;;;;;;;20.20;16.38;;;30.00;33.50;;;;;;5075984;28;20086;-76
2023/04/30 08:56:59;;;;;;;22.63;17.40;;;30.10;34.40;;;;;;5061626;28;20436;-77
2023/04/30 08:59:24;;;;;;;24.10;17.60;;;30.40;32.70;;;;;;5077229;28;20043;-76
2023/04/30 09:01:50;;;;;;;23.45;16.80;;;29.70;34.70;;;;;;5059151;28;20043;-77
2023/04/30 09:04:16;;;;;;;23.83;18.08;;;30.10;33.80;;;;;;5074716;28;20024;-76
2023/04/30 09:06:42;;;;;;;25.08;19.30;;;29.90;33.10;;;;;;5061763;28;20028;-76
2023/04/30 09:09:13;;;;;;;24.67;18.75;;;29.00;33.60;;;;;;5071269;28;20028;-76
2023/04/30 09:11:38;;;;;;;20.90;17.08;;;28.40;35.30;;;;;;5075427;28;20024;-76
2023/04/30 09:14:04;;;;;;;24.30;19.08;;;27.80;37.30;;;;;;5054413;28;20051;-76
2023/04/30 09:16:48;;;;;;;25.52;17.92;;;27.50;35.50;;;;;;5069150;28;20500;-76
2023/04/30 09:19:28;;;;;;;22.83;17.17;;;27.50;37.70;;;;;;5071198;28;20280;-76
2023/04/30 09:21:54;;;;;;;21.92;17.45;;;27.80;38.10;;;;;;5058604;28;20520;-76
2023/04/30 09:24:19;;;;;;;23.92;16.13;;;28.00;37.70;;;;;;5044182;28;20032;-75
2023/04/30 09:26:46;;;;;;;22.77;16.85;;;28.60;35.30;;;;;;5052915;28;20028;-75
2023/04/30 09:29:12;;;;;;;21.52;15.82;;;29.00;36.10;;;;;;5048309;28;20112;-75
2023/04/30 09:31:40;;;;;;;20.48;16.38;;;29.80;34.00;;;;;;5070168;28;20515;-75
2023/04/30 09:34:06;;;;;;;19.98;16.42;;;29.90;32.80;;;;;;5073809;28;20066;-75
2023/04/30 09:36:32;;;;;;;17.42;14.95;;;29.40;32.60;;;;;;5049616;28;20159;-75
2023/04/30 09:39:12;;;;;;;20.70;16.20;;;28.50;33.40;;;;;;5055177;28;20485;-75
2023/04/30 09:41:38;;;;;;;19.02;15.02;;;27.80;34.80;;;;;;5056867;28;20361;-76
2023/04/30 09:44:04;;;;;;;19.13;15.05;;;26.60;35.70;;;;;;5070880;28;20077;-76
2023/04/30 09:46:36;;;;;;;18.85;14.73;;;26.20;36.20;;;;;;5071253;28;20062;-75
2023/04/30 09:49:02;;;;;;;20.10;15.20;;;26.20;37.70;;;;;;5063728;28;20020;-75
2023/04/30 09:51:28;;;;;;;18.85;14.30;;;25.70;37.30;;;;;;5076408;28;20060;-75
2023/04/30 09:53:55;;;;;;;18.95;14.73;;;26.30;38.50;;;;;;5088501;28;20067;-75
2023/04/30 09:56:23;;;;;;;16.23;13.23;;;26.70;36.20;;;;;;5064095;28;20035;-76
2023/04/30 09:58:53;;;;;;;19.42;15.63;;;26.70;35.60;;;;;;5082870;28;20040;-75
2023/04/30 10:01:25;;;;;;;20.15;14.05;;;26.50;35.30;;;;;;5084231;28;20038;-75
2023/04/30 10:03:51;;;;;;;18.33;13.70;;;26.70;36.70;;;;;;5060998;28;20115;-75
2023/04/30 10:06:19;;;;;;;19.98;12.75;;;27.00;35.10;;;;;;5063763;28;20036;-76
2023/04/30 10:08:48;;;;;;;15.65;11.32;;;26.70;37.20;;;;;;5080385;28;20075;-74
2023/04/30 10:11:22;;;;;;;16.70;11.63;;;27.10;37.40;;;;;;5052309;28;20071;-75
2023/04/30 10:14:00;;;;;;;18.63;13.07;;;26.90;34.90;;;;;;5078412;28;20087;-75
2023/04/30 10:16:31;;;;;;;15.13;11.45;;;27.10;37.30;;;;;;5070400;28;20507;-76
2023/04/30 10:19:02;;;;;;;18.38;12.05;;;27.00;35.20;;;;;;5053345;28;20474;-76
2023/04/30 10:21:28;;;;;;;18.80;12.93;;;27.00;34.40;;;;;;5059400;28;20039;-75
2023/04/30 10:23:54;;;;;;;20.13;13.52;;;26.40;36.30;;;;;;5054962;28;20446;-76
2023/04/30 10:26:21;;;;;;;15.48;11.25;;;26.00;36.20;;;;;;5073004;28;20031;-76
2023/04/30 10:28:49;;;;;;;13.75;10.63;;;26.10;37.70;;;;;;5073299;28;20463;-76
2023/04/30 10:31:16;;;;;;;17.80;12.15;;;26.70;35.70;;;;;;5082211;28;20431;-75
2023/04/30 10:34:16;;;;;;;16.10;11.90;;;26.90;35.90;;;;;;5079994;28;20036;-76
2023/04/30 10:36:49;;;;;;;14.82;10.77;;;27.10;34.80;;;;;;5077931;28;20064;-75
2023/04/30 10:39:18;;;;;;;17.38;12.90;;;27.00;36.80;;;;;;5052166;28;20399;-76
2023/04/30 10:41:47;;;;;;;14.40;10.73;;;27.80;33.70;;;;;;5078996;28;20086;-75
2023/04/30 10:44:14;;;;;;;14.95;10.63;;;27.40;33.10;;;;;;5064230;28;20031;-76
2023/04/30 10:46:40;;;;;;;18.00;10.98;;;26.60;34.70;;;;;;5062923;28;20039;-76
2023/04/30 10:49:06;;;;;;;15.10;10.38;;;26.90;35.20;;;;;;5059981;28;20028;-75
2023/04/30 10:51:50;;;;;;;14.52;11.50;;;26.70;38.90;;;;;;5073437;28;20494;-76
2023/04/30 10:54:21;;;;;;;16.25;11.57;;;26.80;38.60;;;;;;5077335;28;20075;-74
2023/04/30 10:56:47;;;;;;;15.57;11.90;;;26.20;35.70;;;;;;5068398;28;20193;-76
2023/04/30 10:59:13;;;;;;;17.48;11.77;;;25.70;36.20;;;;;;5052122;28;20264;-74
2023/04/30 11:01:59;;;;;;;17.65;12.10;;;25.10;38.90;;;;;;5095231;28;20028;-75
2023/04/30 11:04:25;;;;;;;15.55;10.20;;;25.00;41.10;;;;;;5096052;28;20024;-74
2023/04/30 11:06:53;;;;;;;14.02;10.95;;;25.50;38.40;;;;;;5075489;28;20039;-75
2023/04/30 11:09:33;;;;;;;13.65;10.57;;;24.20;39.10;;;;;;5060906;28;20035;-74
2023/04/30 11:12:14;;;;;;;14.00;10.02;;;24.00;42.40;;;;;;5057164;28;20035;-75
2023/04/30 11:14:42;;;;;;;14.25;10.80;;;23.40;41.50;;;;;;5082742;28;20509;-75
2023/04/30 11:17:10;;;;;;;15.70;10.77;;;22.60;43.20;;;;;;5074733;28;20109;-75
2023/04/30 11:19:44;;;;;;;16.60;9.90;;;22.10;43.30;;;;;;5058155;28;20079;-75
2023/04/30 11:22:10;;;;;;;16.00;10.88;;;22.00;44.80;;;;;;5053036;28;20073;-74
2023/04/30 11:25:04;;;;;;;16.65;11.35;;;22.10;45.80;;;;;;5061191;28;20447;-75
2023/04/30 11:27:34;;;;;;;17.88;11.70;;;22.70;45.90;;;;;;5062512;28;20031;-75
2023/04/30 11:30:01;;;;;;;14.23;10.63;;;22.90;44.50;;;;;;5073681;28;20131;-74
2023/04/30 11:32:33;;;;;;;13.95;9.90;;;23.20;42.10;;;;;;5059615;28;20098;-75
2023/04/30 11:35:00;;;;;;;16.83;10.75;;;23.20;43.30;;;;;;5059068;28;20434;-74
2023/04/30 11:37:31;;;;;;;19.00;11.15;;;23.20;44.50;;;;;;5059229;28;20806;-74
2023/04/30 11:40:00;;;;;;;15.45;10.52;;;23.10;46.30;;;;;;5051803;28;20025;-74
2023/04/30 11:42:25;;;;;;;15.38;10.57;;;23.10;43.20;;;;;;5040393;28;20037;-74
2023/04/30 11:44:51;;;;;;;15.77;10.50;;;22.20;46.70;;;;;;5044516;28;20027;-75
2023/04/30 11:47:16;;;;;;;13.57;10.32;;;22.40;49.60;;;;;;5061072;28;20040;-74
2023/04/30 11:49:42;;;;;;;14.75;10.00;;;22.80;45.80;;;;;;5060707;28;20024;-75
2023/04/30 11:52:08;;;;;;;16.75;10.88;;;23.40;44.40;;;;;;5061326;28;20503;-76
2023/04/30 11:54:38;;;;;;;15.35;10.15;;;23.30;41.30;;;;;;5047195;28;20087;-75
2023/04/30 11:57:05;;;;;;;14.35;9.63;;;23.20;45.70;;;;;;5048801;28;20032;-74
2023/04/30 11:59:31;;;;;;;15.90;10.88;;;23.10;44.50;;;;;;5047731;28;20140;-75
2023/04/30 12:01:57;;;;;;;12.65;9.93;;;23.30;46.20;;;;;;5044966;28;20575;-75
2023/04/30 12:04:23;;;;;;;14.32;10.43;;;23.50;45.30;;;;;;5059851;28;20396;-74
2023/04/30 12:06:49;;;;;;;14.68;10.63;;;23.50;44.40;;;;;;5058133;28;20032;-74
2023/04/30 12:09:14;;;;;;;15.55;10.65;;;23.20;45.10;;;;;;5062502;28;20112;-75
2023/04/30 12:11:40;;;;;;;14.45;11.32;;;23.70;45.30;;;;;;5061133;28;20050;-74
2023/04/30 12:14:09;;;;;;;15.25;10.23;;;24.00;43.30;;;;;;5048884;28;20037;-74
2023/04/30 12:16:50;;;;;;;15.25;9.88;;;24.10;41.60;;;;;;5043447;28;20053;-75
2023/04/30 12:19:21;;;;;;;;;;;24.60;41.40;;;;;;5053808;28;20040;-74
2023/04/30 12:21:48;;;;;;;13.38;10.43;;;24.90;40.80;;;;;;5054915;28;20007;-75
2023/04/30 12:24:15;;;;;;;17.63;11.02;;;24.70;38.90;;;;;;5052929;28;20044;-74
2023/04/30 12:26:42;;;;;;;15.07;10.73;;;24.30;40.20;;;;;;5049321;28;20480;-75
2023/04/30 12:29:17;;;;;;;14.48;10.02;;;24.20;40.40;;;;;;5047963;28;20059;-74
2023/04/30 12:31:44;;;;;;;12.65;9.35;;;23.90;44.50;;;;;;5052772;28;20029;-75
2023/04/30 12:34:12;;;;;;;14.38;9.85;;;24.10;42.50;;;;;;5051572;28;20094;-75